sensor_id;sensor_type;location;lat;lon;timestamp;temperature;humidity
52709;DHT22;38606;52.986;6.980;2022-08-19T00:01:15;16.40;99.90
52709;DHT22;38606;52.986;6.980;2022-08-19T00:03:41;16.60;99.90
52709;DHT22;38606;52.986;6.980;2022-08-19T00:06:07;16.20;99.90
52709;DHT22;38606;52.986;6.980;2022-08-19T00:08:32;16.30;99.90
52709;DHT22;38606;52.986;6.980;2022-08-19T00:10:58;16.50;99.90
52709;DHT22;38606;52.986;6.980;2022-08-19T00:13:24;16.20;99.90
52709;DHT22;38606;52.986;6.980;2022-08-19T00:15:49;16.10;99.90
52709;DHT22;38606;52.986;6.980;2022-08-19T00:18:15;16.40;99.90
52709;DHT22;38606;52.986;6.980;2022-08-19T00:20:41;16.40;99.90
52709;DHT22;38606;52.986;6.980;2022-08-19T00:23:07;16.20;99.90
52709;DHT22;38606;52.986;6.980;2022-08-19T00:25:32;16.20;99.90
52709;DHT22;38606;52.986;6.980;2022-08-19T00:27:59;16.10;99.90
52709;DHT22;38606;52.986;6.980;2022-08-19T00:30:25;16.20;99.90
52709;DHT22;38606;52.986;6.980;2022-08-19T00:32:53;16.20;99.90
52709;DHT22;38606;52.986;6.980;2022-08-19T00:35:20;15.90;99.90
52709;DHT22;38606;52.986;6.980;2022-08-19T00:37:48;16.00;99.90
52709;DHT22;38606;52.986;6.980;2022-08-19T00:40:15;16.00;99.90
52709;DHT22;38606;52.986;6.980;2022-08-19T00:42:41;16.10;99.90
52709;DHT22;38606;52.986;6.980;2022-08-19T00:45:14;16.20;99.90
52709;DHT22;38606;52.986;6.980;2022-08-19T00:47:40;16.10;99.90
52709;DHT22;38606;52.986;6.980;2022-08-19T00:50:08;16.20;99.90
52709;DHT22;38606;52.986;6.980;2022-08-19T00:52:36;16.10;99.90
52709;DHT22;38606;52.986;6.980;2022-08-19T00:55:06;16.00;99.90
52709;DHT22;38606;52.986;6.980;2022-08-19T00:57:40;16.20;99.90
52709;DHT22;38606;52.986;6.980;2022-08-19T01:00:11;16.00;99.90
52709;DHT22;38606;52.986;6.980;2022-08-19T01:02:39;15.90;99.90
52709;DHT22;38606;52.986;6.980;2022-08-19T01:05:09;16.50;99.90
52709;DHT22;38606;52.986;6.980;2022-08-19T01:07:37;16.20;99.90
52709;DHT22;38606;52.986;6.980;2022-08-19T01:10:07;16.00;99.90
52709;DHT22;38606;52.986;6.980;2022-08-19T01:12:33;16.10;99.90
52709;DHT22;38606;52.986;6.980;2022-08-19T01:15:00;15.80;99.90
52709;DHT22;38606;52.986;6.980;2022-08-19T01:17:26;16.10;99.90
52709;DHT22;38606;52.986;6.980;2022-08-19T01:19:52;15.90;99.90
52709;DHT22;38606;52.986;6.980;2022-08-19T01:22:27;15.80;99.90
52709;DHT22;38606;52.986;6.980;2022-08-19T01:24:53;15.90;99.90
52709;DHT22;38606;52.986;6.980;2022-08-19T01:27:19;15.90;99.90
52709;DHT22;38606;52.986;6.980;2022-08-19T01:29:45;15.80;99.90
52709;DHT22;38606;52.986;6.980;2022-08-19T01:32:13;15.90;99.90
52709;DHT22;38606;52.986;6.980;2022-08-19T01:34:40;15.80;99.90
52709;DHT22;38606;52.986;6.980;2022-08-19T01:37:07;15.80;99.90
52709;DHT22;38606;52.986;6.980;2022-08-19T01:39:37;15.80;99.90
52709;DHT22;38606;52.986;6.980;2022-08-19T01:42:03;15.70;99.90
52709;DHT22;38606;52.986;6.980;2022-08-19T01:44:30;15.50;99.90
52709;DHT22;38606;52.986;6.980;2022-08-19T01:46:56;16.40;99.90
52709;DHT22;38606;52.986;6.980;2022-08-19T01:49:24;15.50;99.90
52709;DHT22;38606;52.986;6.980;2022-08-19T01:51:52;15.60;99.90
52709;DHT22;38606;52.986;6.980;2022-08-19T01:54:20;16.00;99.90
52709;DHT22;38606;52.986;6.980;2022-08-19T01:56:46;15.80;99.90
52709;DHT22;38606;52.986;6.980;2022-08-19T01:59:17;15.80;99.90
52709;DHT22;38606;52.986;6.980;2022-08-19T02:01:44;15.60;99.90
52709;DHT22;38606;52.986;6.980;2022-08-19T02:04:10;15.70;99.90
52709;DHT22;38606;52.986;6.980;2022-08-19T02:06:36;15.70;99.90
52709;DHT22;38606;52.986;6.980;2022-08-19T02:09:03;15.50;99.90
52709;DHT22;38606;52.986;6.980;2022-08-19T02:11:35;15.80;99.90
52709;DHT22;38606;52.986;6.980;2022-08-19T02:14:04;15.70;99.90
52709;DHT22;38606;52.986;6.980;2022-08-19T02:16:31;15.90;99.90
52709;DHT22;38606;52.986;6.980;2022-08-19T02:18:58;15.60;99.90
52709;DHT22;38606;52.986;6.980;2022-08-19T02:21:27;15.50;99.90
52709;DHT22;38606;52.986;6.980;2022-08-19T02:23:54;15.60;99.90
52709;DHT22;38606;52.986;6.980;2022-08-19T02:26:21;15.40;99.90
52709;DHT22;38606;52.986;6.980;2022-08-19T02:28:47;15.50;99.90
52709;DHT22;38606;52.986;6.980;2022-08-19T02:31:19;15.60;99.90
52709;DHT22;38606;52.986;6.980;2022-08-19T02:33:46;15.00;99.90
52709;DHT22;38606;52.986;6.980;2022-08-19T02:36:13;15.60;99.90
52709;DHT22;38606;52.986;6.980;2022-08-19T02:38:40;15.60;99.90
52709;DHT22;38606;52.986;6.980;2022-08-19T02:41:10;15.40;99.90
52709;DHT22;38606;52.986;6.980;2022-08-19T02:43:37;15.60;99.90
52709;DHT22;38606;52.986;6.980;2022-08-19T02:46:24;15.40;99.90
52709;DHT22;38606;52.986;6.980;2022-08-19T02:48:51;15.40;99.90
52709;DHT22;38606;52.986;6.980;2022-08-19T02:51:29;15.50;99.90
52709;DHT22;38606;52.986;6.980;2022-08-19T02:53:56;15.40;99.90
52709;DHT22;38606;52.986;6.980;2022-08-19T02:56:23;15.50;99.90
52709;DHT22;38606;52.986;6.980;2022-08-19T02:58:50;15.20;99.90
52709;DHT22;38606;52.986;6.980;2022-08-19T03:01:22;15.20;99.90
52709;DHT22;38606;52.986;6.980;2022-08-19T03:03:48;15.50;99.90
52709;DHT22;38606;52.986;6.980;2022-08-19T03:06:15;15.10;99.90
52709;DHT22;38606;52.986;6.980;2022-08-19T03:08:43;15.30;99.90
52709;DHT22;38606;52.986;6.980;2022-08-19T03:11:18;15.60;99.90
52709;DHT22;38606;52.986;6.980;2022-08-19T03:13:44;15.30;99.90
52709;DHT22;38606;52.986;6.980;2022-08-19T03:16:11;15.10;99.90
52709;DHT22;38606;52.986;6.980;2022-08-19T03:18:37;15.00;99.90
52709;DHT22;38606;52.986;6.980;2022-08-19T03:21:04;15.70;99.90
52709;DHT22;38606;52.986;6.980;2022-08-19T03:23:30;15.20;99.90
52709;DHT22;38606;52.986;6.980;2022-08-19T03:25:55;15.30;99.90
52709;DHT22;38606;52.986;6.980;2022-08-19T03:28:21;15.30;99.90
52709;DHT22;38606;52.986;6.980;2022-08-19T03:31:20;15.10;99.90
52709;DHT22;38606;52.986;6.980;2022-08-19T03:33:50;14.90;99.90
52709;DHT22;38606;52.986;6.980;2022-08-19T03:36:19;15.30;99.90
52709;DHT22;38606;52.986;6.980;2022-08-19T03:38:49;15.10;99.90
52709;DHT22;38606;52.986;6.980;2022-08-19T03:41:21;15.30;99.90
52709;DHT22;38606;52.986;6.980;2022-08-19T03:43:47;14.90;99.90
52709;DHT22;38606;52.986;6.980;2022-08-19T03:46:16;14.80;99.90
52709;DHT22;38606;52.986;6.980;2022-08-19T03:48:44;15.60;99.90
52709;DHT22;38606;52.986;6.980;2022-08-19T03:51:26;15.10;99.90
52709;DHT22;38606;52.986;6.980;2022-08-19T03:53:53;15.80;99.90
52709;DHT22;38606;52.986;6.980;2022-08-19T03:56:20;14.90;99.90
52709;DHT22;38606;52.986;6.980;2022-08-19T03:58:46;15.00;99.90
52709;DHT22;38606;52.986;6.980;2022-08-19T04:01:14;15.60;99.90
52709;DHT22;38606;52.986;6.980;2022-08-19T04:03:40;14.90;99.90
52709;DHT22;38606;52.986;6.980;2022-08-19T04:06:18;15.20;99.90
52709;DHT22;38606;52.986;6.980;2022-08-19T04:08:45;15.10;99.90
52709;DHT22;38606;52.986;6.980;2022-08-19T04:11:13;14.90;99.90
52709;DHT22;38606;52.986;6.980;2022-08-19T04:13:40;15.20;99.90
52709;DHT22;38606;52.986;6.980;2022-08-19T04:16:06;15.10;99.90
52709;DHT22;38606;52.986;6.980;2022-08-19T04:18:33;15.10;99.90
52709;DHT22;38606;52.986;6.980;2022-08-19T04:20:59;15.10;99.90
52709;DHT22;38606;52.986;6.980;2022-08-19T04:23:24;14.90;99.90
52709;DHT22;38606;52.986;6.980;2022-08-19T04:25:51;15.30;99.90
52709;DHT22;38606;52.986;6.980;2022-08-19T04:28:16;14.90;99.90
52709;DHT22;38606;52.986;6.980;2022-08-19T04:30:48;14.90;99.90
52709;DHT22;38606;52.986;6.980;2022-08-19T04:33:16;15.00;99.90
52709;DHT22;38606;52.986;6.980;2022-08-19T04:35:44;15.40;99.90
52709;DHT22;38606;52.986;6.980;2022-08-19T04:38:11;15.10;99.90
52709;DHT22;38606;52.986;6.980;2022-08-19T04:40:55;14.90;99.90
52709;DHT22;38606;52.986;6.980;2022-08-19T04:43:39;15.80;99.90
52709;DHT22;38606;52.986;6.980;2022-08-19T04:46:12;14.90;99.90
52709;DHT22;38606;52.986;6.980;2022-08-19T04:48:39;15.30;99.90
52709;DHT22;38606;52.986;6.980;2022-08-19T04:51:10;15.10;99.90
52709;DHT22;38606;52.986;6.980;2022-08-19T04:53:39;14.80;99.90
52709;DHT22;38606;52.986;6.980;2022-08-19T04:56:11;14.90;99.90
52709;DHT22;38606;52.986;6.980;2022-08-19T04:58:38;15.00;99.90
52709;DHT22;38606;52.986;6.980;2022-08-19T05:01:05;15.20;99.90
52709;DHT22;38606;52.986;6.980;2022-08-19T05:03:31;14.90;99.90
52709;DHT22;38606;52.986;6.980;2022-08-19T05:06:18;14.80;99.90
52709;DHT22;38606;52.986;6.980;2022-08-19T05:08:47;15.20;99.90
52709;DHT22;38606;52.986;6.980;2022-08-19T05:11:20;15.10;99.90
52709;DHT22;38606;52.986;6.980;2022-08-19T05:13:47;14.80;99.90
52709;DHT22;38606;52.986;6.980;2022-08-19T05:16:15;15.00;99.90
52709;DHT22;38606;52.986;6.980;2022-08-19T05:18:41;15.50;99.90
52709;DHT22;38606;52.986;6.980;2022-08-19T05:21:26;15.30;99.90
52709;DHT22;38606;52.986;6.980;2022-08-19T05:24:12;15.10;99.90
52709;DHT22;38606;52.986;6.980;2022-08-19T05:26:45;15.10;99.90
52709;DHT22;38606;52.986;6.980;2022-08-19T05:29:13;15.80;99.90
52709;DHT22;38606;52.986;6.980;2022-08-19T05:31:40;15.10;99.90
52709;DHT22;38606;52.986;6.980;2022-08-19T05:34:06;15.40;99.90
52709;DHT22;38606;52.986;6.980;2022-08-19T05:36:51;15.40;99.90
52709;DHT22;38606;52.986;6.980;2022-08-19T05:39:19;15.50;99.90
52709;DHT22;38606;52.986;6.980;2022-08-19T05:41:49;15.30;99.90
52709;DHT22;38606;52.986;6.980;2022-08-19T05:44:16;15.30;99.90
52709;DHT22;38606;52.986;6.980;2022-08-19T05:46:45;15.50;99.90
52709;DHT22;38606;52.986;6.980;2022-08-19T05:49:13;15.60;99.90
52709;DHT22;38606;52.986;6.980;2022-08-19T05:51:39;16.50;99.90
52709;DHT22;38606;52.986;6.980;2022-08-19T05:54:05;15.70;99.90
52709;DHT22;38606;52.986;6.980;2022-08-19T05:56:33;16.10;99.90
52709;DHT22;38606;52.986;6.980;2022-08-19T05:59:02;16.00;99.90
52709;DHT22;38606;52.986;6.980;2022-08-19T06:01:28;16.20;99.90
52709;DHT22;38606;52.986;6.980;2022-08-19T06:03:53;16.20;99.90
52709;DHT22;38606;52.986;6.980;2022-08-19T06:06:19;16.30;99.90
52709;DHT22;38606;52.986;6.980;2022-08-19T06:08:45;16.30;99.90
52709;DHT22;38606;52.986;6.980;2022-08-19T06:11:35;16.60;99.90
52709;DHT22;38606;52.986;6.980;2022-08-19T06:14:04;16.70;99.90
52709;DHT22;38606;52.986;6.980;2022-08-19T06:16:30;16.60;99.90
52709;DHT22;38606;52.986;6.980;2022-08-19T06:19:00;16.80;99.90
52709;DHT22;38606;52.986;6.980;2022-08-19T06:21:28;17.00;99.90
52709;DHT22;38606;52.986;6.980;2022-08-19T06:23:56;17.30;99.90
52709;DHT22;38606;52.986;6.980;2022-08-19T06:26:22;17.20;99.90
52709;DHT22;38606;52.986;6.980;2022-08-19T06:28:48;17.50;99.90
52709;DHT22;38606;52.986;6.980;2022-08-19T06:31:19;17.80;99.90
52709;DHT22;38606;52.986;6.980;2022-08-19T06:33:47;17.80;99.90
52709;DHT22;38606;52.986;6.980;2022-08-19T06:36:34;18.00;99.90
52709;DHT22;38606;52.986;6.980;2022-08-19T06:39:06;18.30;99.90
52709;DHT22;38606;52.986;6.980;2022-08-19T06:41:36;18.10;99.90
52709;DHT22;38606;52.986;6.980;2022-08-19T06:44:03;18.30;99.90
52709;DHT22;38606;52.986;6.980;2022-08-19T06:46:29;18.20;99.90
52709;DHT22;38606;52.986;6.980;2022-08-19T06:48:58;18.70;99.90
52709;DHT22;38606;52.986;6.980;2022-08-19T06:51:24;18.80;99.90
52709;DHT22;38606;52.986;6.980;2022-08-19T06:53:52;18.80;99.90
52709;DHT22;38606;52.986;6.980;2022-08-19T06:56:25;19.10;99.90
52709;DHT22;38606;52.986;6.980;2022-08-19T06:58:55;18.70;99.90
52709;DHT22;38606;52.986;6.980;2022-08-19T07:01:21;18.90;99.90
52709;DHT22;38606;52.986;6.980;2022-08-19T07:03:47;19.20;99.90
52709;DHT22;38606;52.986;6.980;2022-08-19T07:06:15;19.30;99.90
52709;DHT22;38606;52.986;6.980;2022-08-19T07:08:44;19.20;99.90
52709;DHT22;38606;52.986;6.980;2022-08-19T07:11:13;19.40;99.90
52709;DHT22;38606;52.986;6.980;2022-08-19T07:13:40;19.90;99.90
52709;DHT22;38606;52.986;6.980;2022-08-19T07:16:12;19.80;99.90
52709;DHT22;38606;52.986;6.980;2022-08-19T07:18:38;20.00;99.90
52709;DHT22;38606;52.986;6.980;2022-08-19T07:21:12;20.00;99.90
52709;DHT22;38606;52.986;6.980;2022-08-19T07:23:38;20.10;99.90
52709;DHT22;38606;52.986;6.980;2022-08-19T07:26:08;20.20;99.90
52709;DHT22;38606;52.986;6.980;2022-08-19T07:28:34;21.70;99.90
52709;DHT22;38606;52.986;6.980;2022-08-19T07:31:07;20.60;99.90
52709;DHT22;38606;52.986;6.980;2022-08-19T07:33:34;20.80;99.90
52709;DHT22;38606;52.986;6.980;2022-08-19T07:36:06;20.60;99.90
52709;DHT22;38606;52.986;6.980;2022-08-19T07:38:33;20.80;99.90
52709;DHT22;38606;52.986;6.980;2022-08-19T07:41:00;20.60;99.90
52709;DHT22;38606;52.986;6.980;2022-08-19T07:43:27;20.50;99.90
52709;DHT22;38606;52.986;6.980;2022-08-19T07:45:54;20.80;99.90
52709;DHT22;38606;52.986;6.980;2022-08-19T07:48:28;20.80;99.90
52709;DHT22;38606;52.986;6.980;2022-08-19T07:50:56;21.30;99.90
52709;DHT22;38606;52.986;6.980;2022-08-19T07:53:23;21.20;99.90
52709;DHT22;38606;52.986;6.980;2022-08-19T07:55:50;21.10;99.90
52709;DHT22;38606;52.986;6.980;2022-08-19T07:58:19;21.30;99.90
52709;DHT22;38606;52.986;6.980;2022-08-19T08:00:47;21.60;99.90
52709;DHT22;38606;52.986;6.980;2022-08-19T08:03:14;21.60;99.90
52709;DHT22;38606;52.986;6.980;2022-08-19T08:05:40;21.50;99.90
52709;DHT22;38606;52.986;6.980;2022-08-19T08:08:25;21.70;99.90
52709;DHT22;38606;52.986;6.980;2022-08-19T08:11:11;21.70;99.90
52709;DHT22;38606;52.986;6.980;2022-08-19T08:13:37;22.00;99.90
52709;DHT22;38606;52.986;6.980;2022-08-19T08:16:04;22.30;99.90
52709;DHT22;38606;52.986;6.980;2022-08-19T08:18:29;22.50;99.90
52709;DHT22;38606;52.986;6.980;2022-08-19T08:20:57;24.30;99.90
52709;DHT22;38606;52.986;6.980;2022-08-19T08:23:23;22.50;99.90
52709;DHT22;38606;52.986;6.980;2022-08-19T08:25:56;22.60;99.90
52709;DHT22;38606;52.986;6.980;2022-08-19T08:28:23;22.60;99.90
52709;DHT22;38606;52.986;6.980;2022-08-19T08:30:50;22.70;99.90
52709;DHT22;38606;52.986;6.980;2022-08-19T08:33:20;23.20;99.90
52709;DHT22;38606;52.986;6.980;2022-08-19T08:35:47;23.20;99.90
52709;DHT22;38606;52.986;6.980;2022-08-19T08:38:13;23.50;99.90
52709;DHT22;38606;52.986;6.980;2022-08-19T08:40:47;23.30;99.90
52709;DHT22;38606;52.986;6.980;2022-08-19T08:43:24;23.40;99.90
52709;DHT22;38606;52.986;6.980;2022-08-19T08:50:58;23.90;99.90
52709;DHT22;38606;52.986;6.980;2022-08-19T08:53:25;24.10;99.90
52709;DHT22;38606;52.986;6.980;2022-08-19T08:55:51;24.30;99.90
52709;DHT22;38606;52.986;6.980;2022-08-19T08:58:27;24.10;99.90
52709;DHT22;38606;52.986;6.980;2022-08-19T09:00:56;24.20;99.90
52709;DHT22;38606;52.986;6.980;2022-08-19T09:03:24;24.50;99.90
52709;DHT22;38606;52.986;6.980;2022-08-19T09:06:04;24.20;99.90
52709;DHT22;38606;52.986;6.980;2022-08-19T09:08:45;24.60;99.90
52709;DHT22;38606;52.986;6.980;2022-08-19T09:11:33;24.60;99.90
52709;DHT22;38606;52.986;6.980;2022-08-19T09:16:44;24.70;99.90
52709;DHT22;38606;52.986;6.980;2022-08-19T09:19:10;24.80;99.90
52709;DHT22;38606;52.986;6.980;2022-08-19T09:21:36;25.00;99.90
52709;DHT22;38606;52.986;6.980;2022-08-19T09:24:04;24.90;99.90
52709;DHT22;38606;52.986;6.980;2022-08-19T09:26:31;25.30;99.90
52709;DHT22;38606;52.986;6.980;2022-08-19T09:28:58;25.00;99.90
52709;DHT22;38606;52.986;6.980;2022-08-19T09:31:28;25.20;99.90
52709;DHT22;38606;52.986;6.980;2022-08-19T09:33:55;25.30;99.90
52709;DHT22;38606;52.986;6.980;2022-08-19T09:36:26;25.50;99.90
52709;DHT22;38606;52.986;6.980;2022-08-19T09:38:52;25.50;99.90
52709;DHT22;38606;52.986;6.980;2022-08-19T09:41:21;25.40;99.90
52709;DHT22;38606;52.986;6.980;2022-08-19T09:43:51;25.90;99.90
52709;DHT22;38606;52.986;6.980;2022-08-19T09:46:23;25.60;99.90
52709;DHT22;38606;52.986;6.980;2022-08-19T09:48:50;25.80;99.90
52709;DHT22;38606;52.986;6.980;2022-08-19T09:51:20;25.70;99.90
52709;DHT22;38606;52.986;6.980;2022-08-19T09:53:48;26.10;99.90
52709;DHT22;38606;52.986;6.980;2022-08-19T09:56:20;25.90;99.90
52709;DHT22;38606;52.986;6.980;2022-08-19T09:58:46;26.10;99.90
52709;DHT22;38606;52.986;6.980;2022-08-19T10:01:21;26.00;99.90
52709;DHT22;38606;52.986;6.980;2022-08-19T10:03:51;26.10;99.90
52709;DHT22;38606;52.986;6.980;2022-08-19T10:06:19;26.30;99.90
52709;DHT22;38606;52.986;6.980;2022-08-19T10:08:45;26.30;99.90
52709;DHT22;38606;52.986;6.980;2022-08-19T10:11:12;26.50;99.90
52709;DHT22;38606;52.986;6.980;2022-08-19T10:13:42;26.50;99.90
52709;DHT22;38606;52.986;6.980;2022-08-19T10:16:20;26.40;99.90
52709;DHT22;38606;52.986;6.980;2022-08-19T10:18:48;26.30;99.90
52709;DHT22;38606;52.986;6.980;2022-08-19T10:21:20;26.50;99.90
52709;DHT22;38606;52.986;6.980;2022-08-19T10:23:50;26.70;99.90
52709;DHT22;38606;52.986;6.980;2022-08-19T10:26:28;26.80;99.90
52709;DHT22;38606;52.986;6.980;2022-08-19T10:28:55;26.90;99.90
52709;DHT22;38606;52.986;6.980;2022-08-19T10:31:23;27.00;99.90
52709;DHT22;38606;52.986;6.980;2022-08-19T10:33:50;26.90;99.90
52709;DHT22;38606;52.986;6.980;2022-08-19T10:36:30;26.90;99.90
52709;DHT22;38606;52.986;6.980;2022-08-19T10:38:59;27.10;99.90
52709;DHT22;38606;52.986;6.980;2022-08-19T10:41:30;27.00;99.90
52709;DHT22;38606;52.986;6.980;2022-08-19T10:44:00;27.10;99.90
52709;DHT22;38606;52.986;6.980;2022-08-19T10:46:27;27.60;99.90
52709;DHT22;38606;52.986;6.980;2022-08-19T10:48:53;27.60;99.90
52709;DHT22;38606;52.986;6.980;2022-08-19T10:51:20;27.50;99.90
52709;DHT22;38606;52.986;6.980;2022-08-19T10:54:05;27.60;99.90
52709;DHT22;38606;52.986;6.980;2022-08-19T10:56:32;27.40;99.90
52709;DHT22;38606;52.986;6.980;2022-08-19T10:59:25;27.60;99.90
52709;DHT22;38606;52.986;6.980;2022-08-19T11:01:53;27.50;99.90
52709;DHT22;38606;52.986;6.980;2022-08-19T11:04:20;27.60;99.90
52709;DHT22;38606;52.986;6.980;2022-08-19T11:06:47;27.50;99.90
52709;DHT22;38606;52.986;6.980;2022-08-19T11:09:18;27.50;99.90
52709;DHT22;38606;52.986;6.980;2022-08-19T11:11:45;27.80;99.90
52709;DHT22;38606;52.986;6.980;2022-08-19T11:14:15;28.00;99.90
52709;DHT22;38606;52.986;6.980;2022-08-19T11:16:42;28.10;99.90
52709;DHT22;38606;52.986;6.980;2022-08-19T11:19:10;28.00;99.00
52709;DHT22;38606;52.986;6.980;2022-08-19T11:21:40;28.10;99.90
52709;DHT22;38606;52.986;6.980;2022-08-19T11:24:11;28.20;98.80
52709;DHT22;38606;52.986;6.980;2022-08-19T11:26:38;28.10;99.90
52709;DHT22;38606;52.986;6.980;2022-08-19T11:29:06;28.10;98.90
52709;DHT22;38606;52.986;6.980;2022-08-19T11:31:37;28.10;99.90
52709;DHT22;38606;52.986;6.980;2022-08-19T11:34:06;28.60;99.10
52709;DHT22;38606;52.986;6.980;2022-08-19T11:36:33;28.50;98.00
52709;DHT22;38606;52.986;6.980;2022-08-19T11:39:00;28.20;98.40
52709;DHT22;38606;52.986;6.980;2022-08-19T11:41:26;28.30;98.00
52709;DHT22;38606;52.986;6.980;2022-08-19T11:43:52;28.30;97.30
52709;DHT22;38606;52.986;6.980;2022-08-19T11:46:21;28.10;97.90
52709;DHT22;38606;52.986;6.980;2022-08-19T11:48:48;27.90;98.20
52709;DHT22;38606;52.986;6.980;2022-08-19T11:51:17;28.00;97.80
52709;DHT22;38606;52.986;6.980;2022-08-19T11:53:44;27.70;98.30
52709;DHT22;38606;52.986;6.980;2022-08-19T11:56:11;27.60;98.30
52709;DHT22;38606;52.986;6.980;2022-08-19T11:58:37;27.70;97.40
52709;DHT22;38606;52.986;6.980;2022-08-19T12:01:08;27.90;98.10
52709;DHT22;38606;52.986;6.980;2022-08-19T12:03:34;27.40;96.90
52709;DHT22;38606;52.986;6.980;2022-08-19T12:06:05;27.80;99.80
52709;DHT22;38606;52.986;6.980;2022-08-19T12:08:31;27.60;99.60
52709;DHT22;38606;52.986;6.980;2022-08-19T12:10:58;27.70;98.50
52709;DHT22;38606;52.986;6.980;2022-08-19T12:13:27;28.20;97.20
52709;DHT22;38606;52.986;6.980;2022-08-19T12:15:53;27.80;95.30
52709;DHT22;38606;52.986;6.980;2022-08-19T12:18:19;28.10;95.70
52709;DHT22;38606;52.986;6.980;2022-08-19T12:20:45;28.00;95.90
52709;DHT22;38606;52.986;6.980;2022-08-19T12:23:12;28.00;95.60
52709;DHT22;38606;52.986;6.980;2022-08-19T12:25:44;28.30;96.00
52709;DHT22;38606;52.986;6.980;2022-08-19T12:28:16;28.00;96.70
52709;DHT22;38606;52.986;6.980;2022-08-19T12:30:41;28.00;96.40
52709;DHT22;38606;52.986;6.980;2022-08-19T12:33:07;27.70;96.30
52709;DHT22;38606;52.986;6.980;2022-08-19T12:35:33;27.50;96.60
52709;DHT22;38606;52.986;6.980;2022-08-19T12:37:59;27.40;96.80
52709;DHT22;38606;52.986;6.980;2022-08-19T12:40:27;27.50;97.50
52709;DHT22;38606;52.986;6.980;2022-08-19T12:42:53;27.20;97.80
52709;DHT22;38606;52.986;6.980;2022-08-19T12:45:19;27.10;97.70
52709;DHT22;38606;52.986;6.980;2022-08-19T12:47:45;27.30;98.10
52709;DHT22;38606;52.986;6.980;2022-08-19T12:50:12;27.20;98.10
52709;DHT22;38606;52.986;6.980;2022-08-19T12:52:37;27.20;98.50
52709;DHT22;38606;52.986;6.980;2022-08-19T12:55:06;26.80;98.70
52709;DHT22;38606;52.986;6.980;2022-08-19T12:57:32;27.30;99.90
52709;DHT22;38606;52.986;6.980;2022-08-19T13:00:06;27.20;99.90
52709;DHT22;38606;52.986;6.980;2022-08-19T13:02:36;27.20;99.90
52709;DHT22;38606;52.986;6.980;2022-08-19T13:05:03;27.20;99.20
52709;DHT22;38606;52.986;6.980;2022-08-19T13:07:31;27.00;98.30
52709;DHT22;38606;52.986;6.980;2022-08-19T13:09:57;26.80;98.40
52709;DHT22;38606;52.986;6.980;2022-08-19T13:12:23;26.90;99.00
52709;DHT22;38606;52.986;6.980;2022-08-19T13:14:54;27.30;99.20
52709;DHT22;38606;52.986;6.980;2022-08-19T13:17:20;27.20;99.50
52709;DHT22;38606;52.986;6.980;2022-08-19T13:19:46;26.80;98.90
52709;DHT22;38606;52.986;6.980;2022-08-19T13:22:12;27.10;99.10
52709;DHT22;38606;52.986;6.980;2022-08-19T13:24:37;27.20;99.40
52709;DHT22;38606;52.986;6.980;2022-08-19T13:27:04;26.90;99.20
52709;DHT22;38606;52.986;6.980;2022-08-19T13:29:29;27.30;99.70
52709;DHT22;38606;52.986;6.980;2022-08-19T13:32:13;27.20;99.90
52709;DHT22;38606;52.986;6.980;2022-08-19T13:34:58;27.00;99.40
52709;DHT22;38606;52.986;6.980;2022-08-19T13:37:24;27.00;99.90
52709;DHT22;38606;52.986;6.980;2022-08-19T13:40:14;26.80;99.90
52709;DHT22;38606;52.986;6.980;2022-08-19T13:42:42;27.20;99.90
52709;DHT22;38606;52.986;6.980;2022-08-19T13:45:08;27.20;99.90
52709;DHT22;38606;52.986;6.980;2022-08-19T13:47:34;27.30;99.90
52709;DHT22;38606;52.986;6.980;2022-08-19T13:50:04;27.20;99.90
52709;DHT22;38606;52.986;6.980;2022-08-19T13:52:30;27.10;99.90
52709;DHT22;38606;52.986;6.980;2022-08-19T13:54:55;27.50;99.90
52709;DHT22;38606;52.986;6.980;2022-08-19T13:57:22;27.60;97.40
52709;DHT22;38606;52.986;6.980;2022-08-19T13:59:47;27.50;94.80
52709;DHT22;38606;52.986;6.980;2022-08-19T14:02:13;27.60;94.60
52709;DHT22;38606;52.986;6.980;2022-08-19T14:04:39;27.60;94.60
52709;DHT22;38606;52.986;6.980;2022-08-19T14:07:04;27.60;95.20
52709;DHT22;38606;52.986;6.980;2022-08-19T14:09:30;27.40;94.90
52709;DHT22;38606;52.986;6.980;2022-08-19T14:11:56;27.40;95.30
52709;DHT22;38606;52.986;6.980;2022-08-19T14:14:22;27.80;95.30
52709;DHT22;38606;52.986;6.980;2022-08-19T14:16:48;27.60;93.00
52709;DHT22;38606;52.986;6.980;2022-08-19T14:19:14;27.40;93.40
52709;DHT22;38606;52.986;6.980;2022-08-19T14:21:40;27.40;92.80
52709;DHT22;38606;52.986;6.980;2022-08-19T14:24:07;27.60;91.40
52709;DHT22;38606;52.986;6.980;2022-08-19T14:26:33;27.40;90.30
52709;DHT22;38606;52.986;6.980;2022-08-19T14:28:59;26.10;90.00
52709;DHT22;38606;52.986;6.980;2022-08-19T14:31:26;27.40;90.20
52709;DHT22;38606;52.986;6.980;2022-08-19T14:33:52;27.20;90.20
52709;DHT22;38606;52.986;6.980;2022-08-19T14:36:19;27.60;90.40
52709;DHT22;38606;52.986;6.980;2022-08-19T14:38:46;27.30;90.50
52709;DHT22;38606;52.986;6.980;2022-08-19T14:41:23;27.50;91.10
52709;DHT22;38606;52.986;6.980;2022-08-19T14:43:50;27.80;91.60
52709;DHT22;38606;52.986;6.980;2022-08-19T14:46:20;27.30;91.30
52709;DHT22;38606;52.986;6.980;2022-08-19T14:48:47;27.40;91.10
52709;DHT22;38606;52.986;6.980;2022-08-19T14:51:13;27.30;93.50
52709;DHT22;38606;52.986;6.980;2022-08-19T14:53:39;27.20;97.40
52709;DHT22;38606;52.986;6.980;2022-08-19T14:56:13;27.20;99.80
52709;DHT22;38606;52.986;6.980;2022-08-19T14:58:41;27.00;99.90
52709;DHT22;38606;52.986;6.980;2022-08-19T15:01:08;27.20;99.90
52709;DHT22;38606;52.986;6.980;2022-08-19T15:03:33;27.10;99.90
52709;DHT22;38606;52.986;6.980;2022-08-19T15:06:01;27.20;99.90
52709;DHT22;38606;52.986;6.980;2022-08-19T15:08:29;26.60;99.90
52709;DHT22;38606;52.986;6.980;2022-08-19T15:10:56;26.80;99.90
52709;DHT22;38606;52.986;6.980;2022-08-19T15:13:22;26.40;99.90
52709;DHT22;38606;52.986;6.980;2022-08-19T15:15:49;26.40;99.90
52709;DHT22;38606;52.986;6.980;2022-08-19T15:18:17;26.40;99.90
52709;DHT22;38606;52.986;6.980;2022-08-19T15:20:43;26.60;99.90
52709;DHT22;38606;52.986;6.980;2022-08-19T15:23:10;26.30;99.90
52709;DHT22;38606;52.986;6.980;2022-08-19T15:25:36;26.50;99.90
52709;DHT22;38606;52.986;6.980;2022-08-19T15:28:03;26.40;99.90
52709;DHT22;38606;52.986;6.980;2022-08-19T15:30:29;26.10;99.90
52709;DHT22;38606;52.986;6.980;2022-08-19T15:32:56;25.90;99.90
52709;DHT22;38606;52.986;6.980;2022-08-19T15:35:23;25.60;99.90
52709;DHT22;38606;52.986;6.980;2022-08-19T15:37:50;26.00;99.90
52709;DHT22;38606;52.986;6.980;2022-08-19T15:40:17;25.70;99.90
52709;DHT22;38606;52.986;6.980;2022-08-19T15:42:43;25.70;99.90
52709;DHT22;38606;52.986;6.980;2022-08-19T15:45:10;25.80;99.90
52709;DHT22;38606;52.986;6.980;2022-08-19T15:47:37;25.40;99.90